sensor_id;sensor_type;location;lat;lon;timestamp;P1;durP1;ratioP1;P2;durP2;ratioP2
53253;SDS011;39148;53.332;6.922;2023-04-28T00:00:50;3.72;;;1.80;;
53253;SDS011;39148;53.332;6.922;2023-04-28T00:03:16;3.47;;;1.80;;
53253;SDS011;39148;53.332;6.922;2023-04-28T00:05:42;3.33;;;1.48;;
53253;SDS011;39148;53.332;6.922;2023-04-28T00:08:08;3.25;;;1.90;;
53253;SDS011;39148;53.332;6.922;2023-04-28T00:10:34;3.33;;;1.83;;
53253;SDS011;39148;53.332;6.922;2023-04-28T00:13:00;4.18;;;1.70;;
53253;SDS011;39148;53.332;6.922;2023-04-28T00:15:26;4.38;;;2.08;;
53253;SDS011;39148;53.332;6.922;2023-04-28T00:17:52;3.03;;;1.73;;
53253;SDS011;39148;53.332;6.922;2023-04-28T00:20:19;3.05;;;1.55;;
53253;SDS011;39148;53.332;6.922;2023-04-28T00:22:45;4.13;;;1.67;;
53253;SDS011;39148;53.332;6.922;2023-04-28T00:25:13;3.83;;;1.90;;
53253;SDS011;39148;53.332;6.922;2023-04-28T00:27:39;3.80;;;1.90;;
53253;SDS011;39148;53.332;6.922;2023-04-28T00:30:05;3.67;;;1.73;;
53253;SDS011;39148;53.332;6.922;2023-04-28T00:32:31;3.22;;;1.70;;
53253;SDS011;39148;53.332;6.922;2023-04-28T00:34:58;3.25;;;1.83;;
53253;SDS011;39148;53.332;6.922;2023-04-28T00:37:23;3.13;;;1.67;;
53253;SDS011;39148;53.332;6.922;2023-04-28T00:39:53;3.13;;;1.63;;
53253;SDS011;39148;53.332;6.922;2023-04-28T00:42:19;3.17;;;1.90;;
53253;SDS011;39148;53.332;6.922;2023-04-28T00:44:45;3.03;;;1.58;;
53253;SDS011;39148;53.332;6.922;2023-04-28T00:47:11;4.25;;;1.88;;
53253;SDS011;39148;53.332;6.922;2023-04-28T00:49:38;3.53;;;1.70;;
53253;SDS011;39148;53.332;6.922;2023-04-28T00:52:04;3.80;;;1.90;;
53253;SDS011;39148;53.332;6.922;2023-04-28T00:54:34;3.33;;;2.05;;
53253;SDS011;39148;53.332;6.922;2023-04-28T00:57:00;4.00;;;1.92;;
53253;SDS011;39148;53.332;6.922;2023-04-28T00:59:29;3.47;;;2.03;;
53253;SDS011;39148;53.332;6.922;2023-04-28T01:01:55;4.10;;;1.88;;
53253;SDS011;39148;53.332;6.922;2023-04-28T01:04:22;3.50;;;1.85;;
53253;SDS011;39148;53.332;6.922;2023-04-28T01:06:48;5.13;;;2.30;;
53253;SDS011;39148;53.332;6.922;2023-04-28T01:09:15;3.47;;;1.85;;
53253;SDS011;39148;53.332;6.922;2023-04-28T01:11:41;3.70;;;1.92;;
53253;SDS011;39148;53.332;6.922;2023-04-28T01:14:07;4.85;;;2.50;;
53253;SDS011;39148;53.332;6.922;2023-04-28T01:16:33;3.83;;;2.00;;
53253;SDS011;39148;53.332;6.922;2023-04-28T01:18:59;4.13;;;1.95;;
53253;SDS011;39148;53.332;6.922;2023-04-28T01:21:26;4.40;;;1.95;;
53253;SDS011;39148;53.332;6.922;2023-04-28T01:23:55;4.82;;;2.00;;
53253;SDS011;39148;53.332;6.922;2023-04-28T01:26:22;3.88;;;1.80;;
53253;SDS011;39148;53.332;6.922;2023-04-28T01:28:47;4.35;;;2.15;;
53253;SDS011;39148;53.332;6.922;2023-04-28T01:31:13;4.43;;;2.22;;
53253;SDS011;39148;53.332;6.922;2023-04-28T01:33:40;3.05;;;1.65;;
53253;SDS011;39148;53.332;6.922;2023-04-28T01:36:06;3.50;;;1.83;;
53253;SDS011;39148;53.332;6.922;2023-04-28T01:38:32;4.03;;;2.35;;
53253;SDS011;39148;53.332;6.922;2023-04-28T01:40:58;5.18;;;2.40;;
53253;SDS011;39148;53.332;6.922;2023-04-28T01:43:26;4.85;;;2.35;;
53253;SDS011;39148;53.332;6.922;2023-04-28T01:45:52;4.20;;;2.15;;
53253;SDS011;39148;53.332;6.922;2023-04-28T01:48:18;4.35;;;2.38;;
53253;SDS011;39148;53.332;6.922;2023-04-28T01:50:43;4.13;;;2.13;;
53253;SDS011;39148;53.332;6.922;2023-04-28T01:53:09;3.67;;;2.30;;
53253;SDS011;39148;53.332;6.922;2023-04-28T01:55:36;3.72;;;2.00;;
53253;SDS011;39148;53.332;6.922;2023-04-28T01:58:02;4.45;;;2.25;;
53253;SDS011;39148;53.332;6.922;2023-04-28T02:00:28;3.63;;;2.05;;
53253;SDS011;39148;53.332;6.922;2023-04-28T02:02:54;5.13;;;2.50;;
53253;SDS011;39148;53.332;6.922;2023-04-28T02:05:20;5.03;;;2.50;;
53253;SDS011;39148;53.332;6.922;2023-04-28T02:07:46;4.25;;;2.25;;
53253;SDS011;39148;53.332;6.922;2023-04-28T02:10:12;4.53;;;2.53;;
53253;SDS011;39148;53.332;6.922;2023-04-28T02:12:38;6.07;;;2.67;;
53253;SDS011;39148;53.332;6.922;2023-04-28T02:15:07;5.80;;;2.42;;
53253;SDS011;39148;53.332;6.922;2023-04-28T02:17:33;4.97;;;2.63;;
53253;SDS011;39148;53.332;6.922;2023-04-28T02:19:59;3.78;;;2.20;;
53253;SDS011;39148;53.332;6.922;2023-04-28T02:22:25;3.72;;;2.33;;
53253;SDS011;39148;53.332;6.922;2023-04-28T02:24:51;4.30;;;2.50;;
53253;SDS011;39148;53.332;6.922;2023-04-28T02:27:17;4.30;;;2.40;;
53253;SDS011;39148;53.332;6.922;2023-04-28T02:29:43;5.20;;;2.83;;
53253;SDS011;39148;53.332;6.922;2023-04-28T02:32:09;8.10;;;3.10;;
53253;SDS011;39148;53.332;6.922;2023-04-28T02:34:35;5.72;;;2.90;;
53253;SDS011;39148;53.332;6.922;2023-04-28T02:37:01;4.80;;;2.70;;
53253;SDS011;39148;53.332;6.922;2023-04-28T02:39:27;4.80;;;2.80;;
53253;SDS011;39148;53.332;6.922;2023-04-28T02:41:55;4.95;;;2.67;;
53253;SDS011;39148;53.332;6.922;2023-04-28T02:44:21;4.78;;;2.80;;
53253;SDS011;39148;53.332;6.922;2023-04-28T02:46:47;5.43;;;2.85;;
53253;SDS011;39148;53.332;6.922;2023-04-28T02:49:14;5.10;;;2.92;;
53253;SDS011;39148;53.332;6.922;2023-04-28T02:51:40;4.75;;;2.78;;
53253;SDS011;39148;53.332;6.922;2023-04-28T02:54:06;5.40;;;3.30;;
53253;SDS011;39148;53.332;6.922;2023-04-28T02:56:33;4.43;;;2.70;;
53253;SDS011;39148;53.332;6.922;2023-04-28T02:58:59;4.80;;;2.70;;
53253;SDS011;39148;53.332;6.922;2023-04-28T03:01:25;5.00;;;3.00;;
53253;SDS011;39148;53.332;6.922;2023-04-28T03:03:51;5.15;;;2.97;;
53253;SDS011;39148;53.332;6.922;2023-04-28T03:06:18;5.20;;;2.85;;
53253;SDS011;39148;53.332;6.922;2023-04-28T03:08:44;4.32;;;2.75;;
53253;SDS011;39148;53.332;6.922;2023-04-28T03:11:10;5.35;;;3.33;;
53253;SDS011;39148;53.332;6.922;2023-04-28T03:13:36;5.35;;;3.53;;
53253;SDS011;39148;53.332;6.922;2023-04-28T03:16:02;6.00;;;3.10;;
53253;SDS011;39148;53.332;6.922;2023-04-28T03:18:28;4.90;;;3.50;;
53253;SDS011;39148;53.332;6.922;2023-04-28T03:20:54;6.00;;;3.50;;
53253;SDS011;39148;53.332;6.922;2023-04-28T03:23:21;4.97;;;3.15;;
53253;SDS011;39148;53.332;6.922;2023-04-28T03:25:47;5.50;;;3.40;;
53253;SDS011;39148;53.332;6.922;2023-04-28T03:28:13;5.82;;;3.67;;
53253;SDS011;39148;53.332;6.922;2023-04-28T03:30:38;5.38;;;3.35;;
53253;SDS011;39148;53.332;6.922;2023-04-28T03:33:04;4.50;;;3.00;;
53253;SDS011;39148;53.332;6.922;2023-04-28T03:35:31;5.90;;;3.17;;
53253;SDS011;39148;53.332;6.922;2023-04-28T03:37:57;5.70;;;3.60;;
53253;SDS011;39148;53.332;6.922;2023-04-28T03:40:23;6.13;;;3.40;;
53253;SDS011;39148;53.332;6.922;2023-04-28T03:42:49;6.22;;;3.55;;
53253;SDS011;39148;53.332;6.922;2023-04-28T03:45:15;5.40;;;3.47;;
53253;SDS011;39148;53.332;6.922;2023-04-28T03:47:41;5.38;;;3.65;;
53253;SDS011;39148;53.332;6.922;2023-04-28T03:50:07;6.32;;;3.88;;
53253;SDS011;39148;53.332;6.922;2023-04-28T03:52:33;5.68;;;3.63;;
53253;SDS011;39148;53.332;6.922;2023-04-28T03:54:59;5.53;;;3.50;;
53253;SDS011;39148;53.332;6.922;2023-04-28T03:57:25;5.88;;;3.70;;
53253;SDS011;39148;53.332;6.922;2023-04-28T03:59:51;6.22;;;4.10;;
53253;SDS011;39148;53.332;6.922;2023-04-28T04:02:17;6.80;;;3.38;;
53253;SDS011;39148;53.332;6.922;2023-04-28T04:04:43;5.97;;;3.65;;
53253;SDS011;39148;53.332;6.922;2023-04-28T04:07:09;5.90;;;4.00;;
53253;SDS011;39148;53.332;6.922;2023-04-28T04:09:35;5.57;;;3.72;;
53253;SDS011;39148;53.332;6.922;2023-04-28T04:12:01;5.57;;;3.53;;
53253;SDS011;39148;53.332;6.922;2023-04-28T04:14:27;6.57;;;3.80;;
53253;SDS011;39148;53.332;6.922;2023-04-28T04:16:53;6.93;;;4.18;;
53253;SDS011;39148;53.332;6.922;2023-04-28T04:19:19;6.82;;;3.97;;
53253;SDS011;39148;53.332;6.922;2023-04-28T04:21:48;5.53;;;3.42;;
53253;SDS011;39148;53.332;6.922;2023-04-28T04:24:14;6.60;;;4.00;;
53253;SDS011;39148;53.332;6.922;2023-04-28T04:26:40;6.18;;;3.92;;
53253;SDS011;39148;53.332;6.922;2023-04-28T04:29:06;5.95;;;4.18;;
53253;SDS011;39148;53.332;6.922;2023-04-28T04:31:32;6.15;;;4.00;;
53253;SDS011;39148;53.332;6.922;2023-04-28T04:33:58;6.75;;;4.03;;
53253;SDS011;39148;53.332;6.922;2023-04-28T04:36:24;6.82;;;4.20;;
53253;SDS011;39148;53.332;6.922;2023-04-28T04:38:50;6.82;;;3.88;;
53253;SDS011;39148;53.332;6.922;2023-04-28T04:41:17;5.85;;;3.80;;
53253;SDS011;39148;53.332;6.922;2023-04-28T04:43:46;6.97;;;4.07;;
53253;SDS011;39148;53.332;6.922;2023-04-28T04:46:12;6.85;;;4.43;;
53253;SDS011;39148;53.332;6.922;2023-04-28T04:48:39;8.05;;;4.03;;
53253;SDS011;39148;53.332;6.922;2023-04-28T04:51:05;8.27;;;5.00;;
53253;SDS011;39148;53.332;6.922;2023-04-28T04:53:31;6.22;;;4.10;;
53253;SDS011;39148;53.332;6.922;2023-04-28T04:55:57;6.75;;;4.60;;
53253;SDS011;39148;53.332;6.922;2023-04-28T04:58:23;6.65;;;4.38;;
53253;SDS011;39148;53.332;6.922;2023-04-28T05:00:49;6.88;;;4.28;;
53253;SDS011;39148;53.332;6.922;2023-04-28T05:03:15;8.35;;;4.60;;
53253;SDS011;39148;53.332;6.922;2023-04-28T05:05:42;6.82;;;4.68;;
53253;SDS011;39148;53.332;6.922;2023-04-28T05:08:09;8.00;;;4.45;;
53253;SDS011;39148;53.332;6.922;2023-04-28T05:10:36;8.05;;;4.50;;
53253;SDS011;39148;53.332;6.922;2023-04-28T05:13:02;7.38;;;4.90;;
53253;SDS011;39148;53.332;6.922;2023-04-28T05:15:28;6.47;;;4.10;;
53253;SDS011;39148;53.332;6.922;2023-04-28T05:17:55;6.72;;;4.35;;
53253;SDS011;39148;53.332;6.922;2023-04-28T05:20:21;6.93;;;4.45;;
53253;SDS011;39148;53.332;6.922;2023-04-28T05:22:48;8.25;;;4.63;;
53253;SDS011;39148;53.332;6.922;2023-04-28T05:25:14;7.07;;;4.80;;
53253;SDS011;39148;53.332;6.922;2023-04-28T05:27:40;7.57;;;4.88;;
53253;SDS011;39148;53.332;6.922;2023-04-28T05:30:07;8.90;;;5.18;;
53253;SDS011;39148;53.332;6.922;2023-04-28T05:32:34;6.85;;;4.30;;
53253;SDS011;39148;53.332;6.922;2023-04-28T05:35:01;9.32;;;4.65;;
53253;SDS011;39148;53.332;6.922;2023-04-28T05:37:27;7.43;;;4.50;;
53253;SDS011;39148;53.332;6.922;2023-04-28T05:39:53;7.00;;;4.10;;
53253;SDS011;39148;53.332;6.922;2023-04-28T05:42:19;7.05;;;4.53;;
53253;SDS011;39148;53.332;6.922;2023-04-28T05:44:45;6.68;;;4.50;;
53253;SDS011;39148;53.332;6.922;2023-04-28T05:47:11;6.75;;;4.68;;
53253;SDS011;39148;53.332;6.922;2023-04-28T05:49:37;7.20;;;4.70;;
53253;SDS011;39148;53.332;6.922;2023-04-28T05:52:03;7.15;;;4.18;;
53253;SDS011;39148;53.332;6.922;2023-04-28T05:54:29;7.53;;;4.50;;
53253;SDS011;39148;53.332;6.922;2023-04-28T05:56:55;7.57;;;4.55;;
53253;SDS011;39148;53.332;6.922;2023-04-28T05:59:22;6.80;;;4.47;;
53253;SDS011;39148;53.332;6.922;2023-04-28T06:01:48;7.55;;;4.47;;
53253;SDS011;39148;53.332;6.922;2023-04-28T06:04:15;6.97;;;4.32;;
53253;SDS011;39148;53.332;6.922;2023-04-28T06:06:41;6.65;;;4.38;;
53253;SDS011;39148;53.332;6.922;2023-04-28T06:09:07;7.10;;;4.32;;
53253;SDS011;39148;53.332;6.922;2023-04-28T06:11:33;6.85;;;4.40;;
53253;SDS011;39148;53.332;6.922;2023-04-28T06:13:59;7.72;;;4.55;;
53253;SDS011;39148;53.332;6.922;2023-04-28T06:16:25;7.47;;;4.28;;
53253;SDS011;39148;53.332;6.922;2023-04-28T06:18:51;7.68;;;4.85;;
53253;SDS011;39148;53.332;6.922;2023-04-28T06:21:17;6.78;;;4.05;;
53253;SDS011;39148;53.332;6.922;2023-04-28T06:23:45;6.53;;;4.22;;
53253;SDS011;39148;53.332;6.922;2023-04-28T06:26:11;8.05;;;4.57;;
53253;SDS011;39148;53.332;6.922;2023-04-28T06:28:39;7.03;;;4.93;;
53253;SDS011;39148;53.332;6.922;2023-04-28T06:31:05;7.18;;;4.32;;
53253;SDS011;39148;53.332;6.922;2023-04-28T06:33:31;6.72;;;4.40;;
53253;SDS011;39148;53.332;6.922;2023-04-28T06:35:57;9.05;;;4.45;;
53253;SDS011;39148;53.332;6.922;2023-04-28T06:38:23;7.28;;;4.40;;
53253;SDS011;39148;53.332;6.922;2023-04-28T06:40:50;6.10;;;4.28;;
53253;SDS011;39148;53.332;6.922;2023-04-28T06:43:16;7.97;;;4.90;;
53253;SDS011;39148;53.332;6.922;2023-04-28T06:45:42;6.88;;;4.40;;
53253;SDS011;39148;53.332;6.922;2023-04-28T06:48:08;6.55;;;4.20;;
53253;SDS011;39148;53.332;6.922;2023-04-28T06:50:35;8.13;;;4.20;;
53253;SDS011;39148;53.332;6.922;2023-04-28T06:53:01;8.20;;;5.10;;
53253;SDS011;39148;53.332;6.922;2023-04-28T06:55:27;7.00;;;4.00;;
53253;SDS011;39148;53.332;6.922;2023-04-28T06:57:53;7.47;;;4.55;;
53253;SDS011;39148;53.332;6.922;2023-04-28T07:00:19;10.32;;;5.20;;
53253;SDS011;39148;53.332;6.922;2023-04-28T07:02:46;6.68;;;4.30;;
53253;SDS011;39148;53.332;6.922;2023-04-28T07:05:12;7.05;;;4.63;;
53253;SDS011;39148;53.332;6.922;2023-04-28T07:07:38;7.53;;;4.55;;
53253;SDS011;39148;53.332;6.922;2023-04-28T07:10:04;6.47;;;4.03;;
53253;SDS011;39148;53.332;6.922;2023-04-28T07:12:31;6.93;;;4.32;;
53253;SDS011;39148;53.332;6.922;2023-04-28T07:14:57;7.05;;;4.75;;
53253;SDS011;39148;53.332;6.922;2023-04-28T07:17:23;7.95;;;5.05;;
53253;SDS011;39148;53.332;6.922;2023-04-28T07:19:49;7.90;;;4.88;;
53253;SDS011;39148;53.332;6.922;2023-04-28T07:22:15;6.43;;;4.00;;
53253;SDS011;39148;53.332;6.922;2023-04-28T07:24:42;7.38;;;4.03;;
53253;SDS011;39148;53.332;6.922;2023-04-28T07:27:08;7.78;;;4.82;;
53253;SDS011;39148;53.332;6.922;2023-04-28T07:29:34;8.10;;;4.40;;
53253;SDS011;39148;53.332;6.922;2023-04-28T07:32:00;6.82;;;4.47;;
53253;SDS011;39148;53.332;6.922;2023-04-28T07:34:28;7.50;;;4.00;;
53253;SDS011;39148;53.332;6.922;2023-04-28T07:36:54;8.32;;;4.68;;
53253;SDS011;39148;53.332;6.922;2023-04-28T07:39:20;7.32;;;4.10;;
53253;SDS011;39148;53.332;6.922;2023-04-28T07:41:46;6.95;;;4.53;;
53253;SDS011;39148;53.332;6.922;2023-04-28T07:44:12;6.85;;;4.35;;
53253;SDS011;39148;53.332;6.922;2023-04-28T07:46:38;8.10;;;4.78;;
53253;SDS011;39148;53.332;6.922;2023-04-28T07:49:05;7.50;;;5.18;;
53253;SDS011;39148;53.332;6.922;2023-04-28T07:51:32;7.35;;;4.72;;
53253;SDS011;39148;53.332;6.922;2023-04-28T07:53:58;7.30;;;4.60;;
53253;SDS011;39148;53.332;6.922;2023-04-28T07:56:24;9.25;;;4.07;;
53253;SDS011;39148;53.332;6.922;2023-04-28T07:58:51;7.78;;;4.88;;
53253;SDS011;39148;53.332;6.922;2023-04-28T08:01:17;6.85;;;3.90;;
53253;SDS011;39148;53.332;6.922;2023-04-28T08:03:43;8.27;;;4.72;;
53253;SDS011;39148;53.332;6.922;2023-04-28T08:06:09;6.88;;;4.57;;
53253;SDS011;39148;53.332;6.922;2023-04-28T08:08:35;8.68;;;4.80;;
53253;SDS011;39148;53.332;6.922;2023-04-28T08:11:01;6.10;;;4.30;;
53253;SDS011;39148;53.332;6.922;2023-04-28T08:13:27;6.65;;;4.20;;
53253;SDS011;39148;53.332;6.922;2023-04-28T08:15:53;6.50;;;4.03;;
53253;SDS011;39148;53.332;6.922;2023-04-28T08:18:24;7.45;;;4.35;;
53253;SDS011;39148;53.332;6.922;2023-04-28T08:20:51;6.32;;;4.32;;
53253;SDS011;39148;53.332;6.922;2023-04-28T08:23:17;7.95;;;4.68;;
53253;SDS011;39148;53.332;6.922;2023-04-28T08:25:44;7.82;;;4.88;;
53253;SDS011;39148;53.332;6.922;2023-04-28T08:28:11;5.93;;;4.00;;
53253;SDS011;39148;53.332;6.922;2023-04-28T08:30:37;6.95;;;4.50;;
53253;SDS011;39148;53.332;6.922;2023-04-28T08:33:04;7.68;;;4.30;;
53253;SDS011;39148;53.332;6.922;2023-04-28T08:35:30;8.93;;;4.28;;
53253;SDS011;39148;53.332;6.922;2023-04-28T08:37:56;7.50;;;4.10;;
53253;SDS011;39148;53.332;6.922;2023-04-28T08:40:22;7.57;;;4.63;;
53253;SDS011;39148;53.332;6.922;2023-04-28T08:42:49;7.20;;;4.50;;
53253;SDS011;39148;53.332;6.922;2023-04-28T08:45:15;8.68;;;4.80;;
53253;SDS011;39148;53.332;6.922;2023-04-28T08:47:41;8.43;;;4.45;;
53253;SDS011;39148;53.332;6.922;2023-04-28T08:50:10;7.03;;;4.35;;
53253;SDS011;39148;53.332;6.922;2023-04-28T08:52:37;6.40;;;4.50;;
53253;SDS011;39148;53.332;6.922;2023-04-28T08:55:08;7.38;;;4.50;;
53253;SDS011;39148;53.332;6.922;2023-04-28T08:57:38;10.70;;;4.50;;
53253;SDS011;39148;53.332;6.922;2023-04-28T09:00:04;6.85;;;4.03;;
53253;SDS011;39148;53.332;6.922;2023-04-28T09:02:31;7.07;;;4.43;;
53253;SDS011;39148;53.332;6.922;2023-04-28T09:04:57;6.32;;;4.20;;
53253;SDS011;39148;53.332;6.922;2023-04-28T09:07:23;10.38;;;4.50;;
53253;SDS011;39148;53.332;6.922;2023-04-28T09:09:49;5.72;;;3.80;;
53253;SDS011;39148;53.332;6.922;2023-04-28T09:12:15;7.43;;;4.50;;
53253;SDS011;39148;53.332;6.922;2023-04-28T09:14:43;7.80;;;4.47;;
53253;SDS011;39148;53.332;6.922;2023-04-28T09:17:12;7.38;;;4.38;;
53253;SDS011;39148;53.332;6.922;2023-04-28T09:22:09;6.45;;;4.32;;
53253;SDS011;39148;53.332;6.922;2023-04-28T09:24:38;7.45;;;4.53;;
53253;SDS011;39148;53.332;6.922;2023-04-28T09:27:05;7.50;;;4.30;;
53253;SDS011;39148;53.332;6.922;2023-04-28T09:29:34;7.70;;;4.05;;
53253;SDS011;39148;53.332;6.922;2023-04-28T09:32:19;6.97;;;4.03;;
53253;SDS011;39148;53.332;6.922;2023-04-28T09:34:46;7.45;;;4.20;;
53253;SDS011;39148;53.332;6.922;2023-04-28T09:37:13;8.02;;;4.88;;
53253;SDS011;39148;53.332;6.922;2023-04-28T09:39:39;6.40;;;4.05;;
53253;SDS011;39148;53.332;6.922;2023-04-28T09:42:05;7.07;;;4.20;;
53253;SDS011;39148;53.332;6.922;2023-04-28T09:44:32;6.15;;;4.25;;
53253;SDS011;39148;53.332;6.922;2023-04-28T09:46:58;8.27;;;4.28;;
53253;SDS011;39148;53.332;6.922;2023-04-28T09:49:25;7.28;;;4.18;;
53253;SDS011;39148;53.332;6.922;2023-04-28T09:51:51;6.85;;;4.03;;
53253;SDS011;39148;53.332;6.922;2023-04-28T09:54:17;8.35;;;4.20;;
53253;SDS011;39148;53.332;6.922;2023-04-28T09:56:44;6.18;;;4.07;;
53253;SDS011;39148;53.332;6.922;2023-04-28T09:59:11;6.85;;;4.40;;
53253;SDS011;39148;53.332;6.922;2023-04-28T10:01:39;6.05;;;4.05;;
53253;SDS011;39148;53.332;6.922;2023-04-28T10:04:06;8.48;;;4.20;;
53253;SDS011;39148;53.332;6.922;2023-04-28T10:06:32;7.25;;;4.22;;
53253;SDS011;39148;53.332;6.922;2023-04-28T10:09:00;6.47;;;3.80;;
53253;SDS011;39148;53.332;6.922;2023-04-28T10:11:26;7.50;;;4.13;;
53253;SDS011;39148;53.332;6.922;2023-04-28T10:13:53;6.65;;;4.10;;
53253;SDS011;39148;53.332;6.922;2023-04-28T10:16:19;6.47;;;4.18;;
53253;SDS011;39148;53.332;6.922;2023-04-28T10:18:45;7.22;;;4.30;;
53253;SDS011;39148;53.332;6.922;2023-04-28T10:21:13;7.15;;;4.10;;
53253;SDS011;39148;53.332;6.922;2023-04-28T10:23:58;7.32;;;4.10;;
53253;SDS011;39148;53.332;6.922;2023-04-28T10:26:28;6.68;;;3.95;;
53253;SDS011;39148;53.332;6.922;2023-04-28T10:29:01;6.57;;;3.67;;
53253;SDS011;39148;53.332;6.922;2023-04-28T10:31:27;8.02;;;4.32;;
53253;SDS011;39148;53.332;6.922;2023-04-28T10:33:53;6.43;;;3.53;;
53253;SDS011;39148;53.332;6.922;2023-04-28T10:39:16;7.47;;;4.10;;
53253;SDS011;39148;53.332;6.922;2023-04-28T10:41:44;5.68;;;3.85;;
53253;SDS011;39148;53.332;6.922;2023-04-28T10:47:01;5.90;;;3.55;;
53253;SDS011;39148;53.332;6.922;2023-04-28T10:57:42;5.90;;;3.72;;
53253;SDS011;39148;53.332;6.922;2023-04-28T11:00:26;5.97;;;4.18;;
53253;SDS011;39148;53.332;6.922;2023-04-28T11:02:53;7.10;;;4.20;;
53253;SDS011;39148;53.332;6.922;2023-04-28T11:05:19;6.03;;;3.80;;
53253;SDS011;39148;53.332;6.922;2023-04-28T11:13:27;6.30;;;3.97;;
53253;SDS011;39148;53.332;6.922;2023-04-28T11:16:04;8.13;;;4.47;;
53253;SDS011;39148;53.332;6.922;2023-04-28T11:18:47;6.07;;;3.90;;
53253;SDS011;39148;53.332;6.922;2023-04-28T11:21:14;7.22;;;3.97;;
53253;SDS011;39148;53.332;6.922;2023-04-28T11:23:42;6.13;;;4.15;;
53253;SDS011;39148;53.332;6.922;2023-04-28T11:26:08;6.22;;;3.88;;
53253;SDS011;39148;53.332;6.922;2023-04-28T11:28:34;8.70;;;4.43;;
53253;SDS011;39148;53.332;6.922;2023-04-28T11:31:14;6.25;;;3.60;;
53253;SDS011;39148;53.332;6.922;2023-04-28T11:33:53;6.22;;;4.13;;
53253;SDS011;39148;53.332;6.922;2023-04-28T11:36:50;6.47;;;4.47;;
53253;SDS011;39148;53.332;6.922;2023-04-28T11:39:16;7.00;;;4.20;;
53253;SDS011;39148;53.332;6.922;2023-04-28T11:41:50;6.97;;;4.35;;
53253;SDS011;39148;53.332;6.922;2023-04-28T11:44:16;6.60;;;4.28;;
53253;SDS011;39148;53.332;6.922;2023-04-28T11:46:52;7.68;;;4.43;;
53253;SDS011;39148;53.332;6.922;2023-04-28T11:49:27;6.07;;;3.78;;
53253;SDS011;39148;53.332;6.922;2023-04-28T11:51:55;9.85;;;4.40;;
53253;SDS011;39148;53.332;6.922;2023-04-28T11:54:24;5.60;;;4.05;;
53253;SDS011;39148;53.332;6.922;2023-04-28T11:56:51;7.38;;;4.55;;
53253;SDS011;39148;53.332;6.922;2023-04-28T11:59:17;7.90;;;3.72;;
53253;SDS011;39148;53.332;6.922;2023-04-28T12:01:51;7.18;;;4.25;;
53253;SDS011;39148;53.332;6.922;2023-04-28T12:07:09;5.70;;;3.70;;
53253;SDS011;39148;53.332;6.922;2023-04-28T12:09:37;7.13;;;4.65;;
53253;SDS011;39148;53.332;6.922;2023-04-28T12:12:08;6.25;;;3.95;;
53253;SDS011;39148;53.332;6.922;2023-04-28T12:17:02;6.68;;;4.25;;
53253;SDS011;39148;53.332;6.922;2023-04-28T12:19:28;6.55;;;4.00;;
53253;SDS011;39148;53.332;6.922;2023-04-28T12:22:04;7.65;;;4.35;;
53253;SDS011;39148;53.332;6.922;2023-04-28T12:24:30;8.32;;;4.47;;
53253;SDS011;39148;53.332;6.922;2023-04-28T12:27:15;7.03;;;3.70;;
53253;SDS011;39148;53.332;6.922;2023-04-28T12:29:42;5.75;;;3.58;;
53253;SDS011;39148;53.332;6.922;2023-04-28T12:32:10;7.18;;;4.85;;
53253;SDS011;39148;53.332;6.922;2023-04-28T12:34:36;5.78;;;3.90;;
53253;SDS011;39148;53.332;6.922;2023-04-28T12:37:03;6.63;;;4.18;;
53253;SDS011;39148;53.332;6.922;2023-04-28T12:39:33;6.53;;;4.07;;
53253;SDS011;39148;53.332;6.922;2023-04-28T12:42:00;6.23;;;4.13;;
53253;SDS011;39148;53.332;6.922;2023-04-28T12:44:31;6.10;;;3.60;;
53253;SDS011;39148;53.332;6.922;2023-04-28T12:46:59;6.30;;;3.70;;
53253;SDS011;39148;53.332;6.922;2023-04-28T12:49:29;6.20;;;4.10;;
53253;SDS011;39148;53.332;6.922;2023-04-28T12:51:55;7.38;;;4.30;;
53253;SDS011;39148;53.332;6.922;2023-04-28T12:54:21;6.80;;;4.18;;
53253;SDS011;39148;53.332;6.922;2023-04-28T12:56:47;7.50;;;4.35;;
53253;SDS011;39148;53.332;6.922;2023-04-28T12:59:13;5.32;;;3.75;;
53253;SDS011;39148;53.332;6.922;2023-04-28T13:01:39;6.35;;;3.90;;
53253;SDS011;39148;53.332;6.922;2023-04-28T13:04:05;6.35;;;3.90;;
53253;SDS011;39148;53.332;6.922;2023-04-28T13:06:31;6.32;;;4.00;;
53253;SDS011;39148;53.332;6.922;2023-04-28T13:08:57;6.10;;;3.92;;
53253;SDS011;39148;53.332;6.922;2023-04-28T13:11:23;7.43;;;4.47;;
53253;SDS011;39148;53.332;6.922;2023-04-28T13:13:51;7.07;;;4.60;;
53253;SDS011;39148;53.332;6.922;2023-04-28T13:16:17;6.35;;;3.92;;
53253;SDS011;39148;53.332;6.922;2023-04-28T13:18:43;6.20;;;3.90;;
53253;SDS011;39148;53.332;6.922;2023-04-28T13:21:09;6.20;;;4.20;;
53253;SDS011;39148;53.332;6.922;2023-04-28T13:23:35;5.53;;;3.70;;
53253;SDS011;39148;53.332;6.922;2023-04-28T13:26:01;7.45;;;4.45;;
53253;SDS011;39148;53.332;6.922;2023-04-28T13:28:28;6.45;;;4.20;;
53253;SDS011;39148;53.332;6.922;2023-04-28T13:30:54;6.00;;;3.90;;
53253;SDS011;39148;53.332;6.922;2023-04-28T13:33:20;6.95;;;4.38;;
53253;SDS011;39148;53.332;6.922;2023-04-28T13:35:46;6.30;;;3.95;;
53253;SDS011;39148;53.332;6.922;2023-04-28T13:38:11;7.70;;;3.97;;
53253;SDS011;39148;53.332;6.922;2023-04-28T13:40:37;7.40;;;3.70;;
53253;SDS011;39148;53.332;6.922;2023-04-28T13:43:03;6.13;;;4.10;;
53253;SDS011;39148;53.332;6.922;2023-04-28T13:45:29;5.80;;;4.00;;
53253;SDS011;39148;53.332;6.922;2023-04-28T13:47:55;6.03;;;3.95;;
53253;SDS011;39148;53.332;6.922;2023-04-28T13:50:21;6.05;;;4.10;;
53253;SDS011;39148;53.332;6.922;2023-04-28T13:52:47;6.18;;;4.53;;
53253;SDS011;39148;53.332;6.922;2023-04-28T13:55:13;6.25;;;3.90;;
53253;SDS011;39148;53.332;6.922;2023-04-28T13:57:39;5.93;;;4.10;;
53253;SDS011;39148;53.332;6.922;2023-04-28T14:00:05;6.63;;;3.80;;
53253;SDS011;39148;53.332;6.922;2023-04-28T14:02:31;6.65;;;4.30;;
53253;SDS011;39148;53.332;6.922;2023-04-28T14:04:58;6.38;;;3.97;;
53253;SDS011;39148;53.332;6.922;2023-04-28T14:07:23;9.45;;;4.57;;
53253;SDS011;39148;53.332;6.922;2023-04-28T14:09:49;7.20;;;4.45;;
53253;SDS011;39148;53.332;6.922;2023-04-28T14:12:16;6.90;;;4.55;;
53253;SDS011;39148;53.332;6.922;2023-04-28T14:14:41;6.88;;;4.10;;
53253;SDS011;39148;53.332;6.922;2023-04-28T14:17:07;6.32;;;3.92;;
53253;SDS011;39148;53.332;6.922;2023-04-28T14:19:33;6.57;;;4.13;;
53253;SDS011;39148;53.332;6.922;2023-04-28T14:21:59;6.50;;;3.95;;
53253;SDS011;39148;53.332;6.922;2023-04-28T14:24:26;7.85;;;4.07;;
53253;SDS011;39148;53.332;6.922;2023-04-28T14:26:52;6.97;;;3.67;;
53253;SDS011;39148;53.332;6.922;2023-04-28T14:29:18;6.15;;;3.75;;
53253;SDS011;39148;53.332;6.922;2023-04-28T14:31:45;6.05;;;3.83;;
53253;SDS011;39148;53.332;6.922;2023-04-28T14:34:11;5.30;;;3.58;;
53253;SDS011;39148;53.332;6.922;2023-04-28T14:36:37;5.78;;;3.42;;
53253;SDS011;39148;53.332;6.922;2023-04-28T14:39:03;8.05;;;4.05;;
53253;SDS011;39148;53.332;6.922;2023-04-28T14:41:28;5.13;;;3.60;;
53253;SDS011;39148;53.332;6.922;2023-04-28T14:43:55;6.05;;;3.78;;
53253;SDS011;39148;53.332;6.922;2023-04-28T14:46:21;5.88;;;3.88;;
53253;SDS011;39148;53.332;6.922;2023-04-28T14:48:50;5.25;;;3.58;;
53253;SDS011;39148;53.332;6.922;2023-04-28T14:51:17;5.40;;;3.63;;
53253;SDS011;39148;53.332;6.922;2023-04-28T14:53:42;5.40;;;3.58;;
53253;SDS011;39148;53.332;6.922;2023-04-28T14:56:08;5.75;;;3.60;;
53253;SDS011;39148;53.332;6.922;2023-04-28T14:58:35;4.97;;;3.40;;
53253;SDS011;39148;53.332;6.922;2023-04-28T15:01:01;5.75;;;3.88;;
53253;SDS011;39148;53.332;6.922;2023-04-28T15:03:27;12.65;;;4.57;;
53253;SDS011;39148;53.332;6.922;2023-04-28T15:05:54;5.80;;;3.63;;
53253;SDS011;39148;53.332;6.922;2023-04-28T15:08:20;5.13;;;3.42;;
53253;SDS011;39148;53.332;6.922;2023-04-28T15:10:46;5.63;;;3.53;;
53253;SDS011;39148;53.332;6.922;2023-04-28T15:13:11;5.57;;;3.90;;